Time;durP1;ratioP1;P1;durP2;ratioP2;P2;SDS_P1;SDS_P2;PMS_P1;PMS_P2;Temp;Humidity;BMP_temperature;BMP_pressure;BME280_temperature;BME280_humidity;BME280_pressure;Samples;Min_cycle;Max_cycle;Signal;HPM_P1;HPM_P2
2022/11/30 00:00:20;;;;;;;5.57;4.17;;;;;;;6.63;100.00;100705.97;5057251;28;20454;-55
2022/11/30 00:02:52;;;;;;;5.23;4.80;;;;;;;6.67;100.00;100710.34;5066967;28;20454;-56
2022/11/30 00:05:19;;;;;;;7.37;3.87;;;;;;;6.68;100.00;100709.47;5064172;28;20504;-55
2022/11/30 00:07:46;;;;;;;7.90;5.10;;;;;;;6.71;100.00;100711.19;5064127;28;20659;-56
2022/11/30 00:10:12;;;;;;;6.67;5.97;;;;;;;6.79;100.00;100709.41;5057982;28;20450;-55
2022/11/30 00:12:42;;;;;;;16.70;5.00;;;;;;;6.81;100.00;100703.22;5057318;28;20500;-55
2022/11/30 00:15:13;;;;;;;3.70;3.40;;;;;;;6.75;100.00;100698.00;5062960;28;20528;-55
2022/11/30 00:17:40;;;;;;;4.43;3.23;;;;;;;6.70;100.00;100690.97;5063811;28;20450;-56
2022/11/30 00:20:07;;;;;;;6.80;5.30;;;;;;;6.66;100.00;100687.47;5059299;28;20458;-55
2022/11/30 00:22:34;;;;;;;19.27;4.17;;;;;;;6.68;100.00;100696.25;5056896;28;20450;-55
2022/11/30 00:25:03;;;;;;;14.30;4.80;;;;;;;6.67;100.00;100701.56;5061305;28;20502;-56
2022/11/30 00:27:31;;;;;;;6.73;6.33;;;;;;;6.70;100.00;100699.75;5063468;28;20458;-55
2022/11/30 00:29:58;;;;;;;12.90;5.33;;;;;;;6.64;100.00;100698.94;5060760;28;20495;-55
2022/11/30 00:32:27;;;;;;;7.93;5.70;;;;;;;6.59;100.00;100692.81;5056719;28;20530;-56
2022/11/30 00:34:54;;;;;;;5.60;4.27;;;;;;;6.58;100.00;100697.22;5070158;28;20484;-55
2022/11/30 00:37:21;;;;;;;3.97;2.97;;;;;;;6.59;100.00;100693.69;5056448;28;20449;-55
2022/11/30 00:39:47;;;;;;;4.67;4.37;;;;;;;6.53;100.00;100697.22;5059678;28;20508;-56
2022/11/30 00:42:14;;;;;;;7.63;3.57;;;;;;;6.52;100.00;100703.41;5063515;28;20447;-55
2022/11/30 00:44:40;;;;;;;17.43;8.03;;;;;;;6.47;100.00;100701.69;5060405;28;20994;-55
2022/11/30 00:47:08;;;;;;;5.63;5.07;;;;;;;6.43;100.00;100692.88;5058048;28;20454;-56
2022/11/30 00:49:34;;;;;;;10.20;5.97;;;;;;;6.46;100.00;100697.28;5058951;28;20814;-55
2022/11/30 00:52:00;;;;;;;6.00;4.87;;;;;;;6.47;100.00;100697.28;5054105;28;20457;-56
2022/11/30 00:54:27;;;;;;;6.43;4.80;;;;;;;6.50;100.00;100699.00;5058378;28;20871;-56
2022/11/30 00:56:53;;;;;;;8.80;8.00;;;;;;;6.49;100.00;100689.34;5054530;28;20450;-56
2022/11/30 00:59:20;;;;;;;19.60;4.67;;;;;;;6.43;100.00;100694.63;5058560;28;20446;-56
2022/11/30 01:01:46;;;;;;;13.10;5.57;;;;;;;6.48;100.00;100692.88;5064163;28;20484;-56
2022/11/30 01:04:13;;;;;;;7.70;3.60;;;;;;;6.56;100.00;100698.09;5057953;28;20554;-55
2022/11/30 01:06:39;;;;;;;10.23;5.87;;;;;;;6.59;100.00;100698.09;5063050;28;20552;-56
2022/11/30 01:09:06;;;;;;;7.03;6.43;;;;;;;6.55;100.00;100697.22;5060389;28;21016;-55
2022/11/30 01:11:32;;;;;;;8.70;4.87;;;;;;;6.54;100.00;100696.34;5056141;28;20449;-56
2022/11/30 01:13:59;;;;;;;6.37;5.50;;;;;;;6.49;100.00;100699.91;5057587;28;20833;-55
2022/11/30 01:16:28;;;;;;;6.03;5.47;;;;;;;6.57;100.00;100699.84;5062745;28;20455;-55
2022/11/30 01:18:55;;;;;;;10.03;7.23;;;;;;;6.53;100.00;100694.59;5062007;28;20890;-56
2022/11/30 01:21:24;;;;;;;7.60;6.87;;;;;;;6.51;100.00;100695.47;5055999;28;20969;-55
2022/11/30 01:23:51;;;;;;;52.20;7.23;;;;;;;6.50;100.00;100694.59;5055701;28;20451;-57
2022/11/30 01:26:18;;;;;;;7.80;7.30;;;;;;;6.49;100.00;100695.50;5042967;28;20496;-56
2022/11/30 01:28:52;;;;;;;11.90;7.50;;;;;;;6.46;100.00;100702.56;5056153;28;20914;-56
2022/11/30 01:31:20;;;;;;;15.97;8.50;;;;;;;6.48;100.00;100696.38;5061330;28;20450;-56
2022/11/30 01:33:51;;;;;;;6.23;5.40;;;;;;;6.48;100.00;100696.38;5062171;28;20958;-55
2022/11/30 01:36:20;;;;;;;4.10;3.80;;;;;;;6.49;100.00;100699.91;5058113;28;20446;-56
2022/11/30 01:38:52;;;;;;;4.80;4.50;;;;;;;6.53;100.00;100696.34;5055899;28;20459;-55
2022/11/30 01:41:28;;;;;;;13.23;4.73;;;;;;;6.57;100.00;100695.44;5059038;28;20462;-56
2022/11/30 01:44:17;;;;;;;5.33;4.37;;;;;;;6.59;100.00;100690.19;5062774;28;20447;-55
2022/11/30 01:46:52;;;;;;;9.80;4.10;;;;;;;6.61;100.00;100694.56;5004665;28;20829;-55
2022/11/30 01:49:29;;;;;;;5.23;4.80;;;;;;;6.68;100.00;100698.91;5059388;28;20928;-55
2022/11/30 01:52:06;;;;;;;3.47;3.10;;;;;;;6.67;100.00;100698.91;5062620;28;20928;-55
2022/11/30 01:54:46;;;;;;;4.50;4.20;;;;;;;6.59;100.00;100704.25;5062064;28;20473;-54
2022/11/30 01:57:21;;;;;;;6.17;5.40;;;;;;;6.54;100.00;100698.97;5043843;28;20465;-54
2022/11/30 01:59:51;;;;;;;14.83;3.90;;;;;;;6.61;100.00;100697.19;5055457;28;20450;-55
2022/11/30 02:02:26;;;;;;;10.73;5.00;;;;;;;6.69;100.00;100694.50;5065510;28;20445;-54
2022/11/30 02:04:53;;;;;;;8.70;6.33;;;;;;;6.66;100.00;100692.75;5054960;28;21048;-54
2022/11/30 02:07:20;;;;;;;13.63;4.30;;;;;;;6.65;100.00;100695.41;5058306;28;20818;-54
2022/11/30 02:09:46;;;;;;;4.43;4.10;;;;;;;6.69;100.00;100697.13;5062335;28;20508;-54
2022/11/30 02:12:35;;;;;;;11.13;3.57;;;;;;;6.62;100.00;100692.78;5059156;28;20876;-54
2022/11/30 02:15:10;;;;;;;12.23;5.27;;;;;;;6.65;100.00;100691.00;5061960;28;20852;-55
2022/11/30 02:18:01;;;;;;;16.73;6.57;;;;;;;6.65;100.00;100695.41;5061769;28;20492;-54
2022/11/30 02:20:46;;;;;;;5.53;5.03;;;;;;;6.65;100.00;100698.91;5061033;28;20449;-54
2022/11/30 02:23:33;;;;;;;3.10;2.77;;;;;;;6.61;100.00;100699.84;5065261;28;20501;-56
2022/11/30 02:26:24;;;;;;;4.90;4.47;;;;;;;6.66;100.00;100700.66;5065626;28;20498;-55
2022/11/30 02:29:19;;;;;;;4.43;3.60;;;;;;;6.60;100.00;100700.72;5066267;28;20446;-54
2022/11/30 02:31:54;;;;;;;2.30;2.03;;;;;;;6.63;100.00;100697.19;5047065;28;20447;-55
2022/11/30 02:34:25;;;;;;;6.27;3.03;;;;;;;6.56;100.00;100693.69;5064895;28;20893;-55
2022/11/30 02:36:54;;;;;;;9.87;3.73;;;;;;;6.60;100.00;100697.22;5065535;28;20446;-55
2022/11/30 02:39:21;;;;;;;17.20;3.20;;;;;;;6.61;100.00;100699.84;5058939;28;20487;-55
2022/11/30 02:41:47;;;;;;;11.33;5.60;;;;;;;6.46;100.00;100700.81;5058831;28;20858;-54
2022/11/30 02:44:15;;;;;;;6.30;4.23;;;;;;;6.57;100.00;100698.06;5059160;28;20499;-54
2022/11/30 02:47:00;;;;;;;11.10;6.83;;;;;;;6.69;100.00;100697.13;5058304;28;20497;-54
2022/11/30 02:49:39;;;;;;;6.13;5.37;;;;;;;6.72;100.00;100702.41;5062589;28;20931;-54
2022/11/30 02:52:09;;;;;;;5.30;3.50;;;;;;;6.71;100.00;100705.91;5064416;28;20869;-54
2022/11/30 02:54:35;;;;;;;8.83;3.93;;;;;;;6.68;100.00;100711.22;5063846;28;20527;-55
2022/11/30 02:57:02;;;;;;;3.30;3.10;;;;;;;6.68;100.00;100712.09;5045401;28;20446;-55
2022/11/30 02:59:28;;;;;;;12.93;4.33;;;;;;;6.75;100.00;100713.84;5059241;28;20493;-54
2022/11/30 03:01:55;;;;;;;5.40;3.17;;;;;;;6.91;100.00;100709.31;5067192;28;20445;-55
2022/11/30 03:04:21;;;;;;;5.23;3.90;;;;;;;6.98;100.00;100708.38;5059197;28;20895;-55
2022/11/30 03:06:48;;;;;;;4.27;3.80;;;;;;;6.89;100.00;100707.59;5065004;28;20493;-55
2022/11/30 03:09:14;;;;;;;5.93;4.33;;;;;;;6.81;100.00;100708.50;5064073;28;20459;-55
2022/11/30 03:11:41;;;;;;;9.10;6.00;;;;;;;6.72;100.00;100713.00;5058246;28;20450;-54
2022/11/30 03:14:07;;;;;;;9.20;3.90;;;;;;;6.45;100.00;100711.38;5058948;28;20490;-54
2022/11/30 03:16:35;;;;;;;9.13;6.00;;;;;;;6.35;100.00;100715.81;5065241;28;20458;-54
2022/11/30 03:19:01;;;;;;;12.90;4.27;;;;;;;6.44;100.00;100717.50;5064716;28;20454;-55
2022/11/30 03:21:28;;;;;;;6.30;5.13;;;;;;;6.64;100.00;100717.44;5058143;28;20473;-55
2022/11/30 03:23:54;;;;;;;5.23;4.73;;;;;;;6.61;100.00;100720.97;5058802;28;20524;-55
2022/11/30 03:26:21;;;;;;;11.63;4.73;;;;;;;6.66;100.00;100718.28;5064803;28;20617;-54
2022/11/30 03:28:47;;;;;;;9.50;3.77;;;;;;;6.68;100.00;100712.09;5064245;28;20884;-56
2022/11/30 03:31:14;;;;;;;5.03;3.77;;;;;;;6.72;100.00;100711.22;5049861;28;20529;-55
2022/11/30 03:33:41;;;;;;;5.23;3.43;;;;;;;6.80;100.00;100716.44;5057819;28;20459;-55
2022/11/30 03:36:09;;;;;;;9.60;6.63;;;;;;;6.77;100.00;100722.63;5045033;28;20482;-55
2022/11/30 03:38:36;;;;;;;11.53;4.10;;;;;;;6.64;100.00;100720.94;5057678;28;20450;-55
2022/11/30 03:41:12;;;;;;;6.80;5.37;;;;;;;6.62;100.00;100725.34;5064033;28;20446;-55
2022/11/30 03:43:41;;;;;;;16.60;4.50;;;;;;;6.72;100.00;100720.91;5064661;28;20948;-54
2022/11/30 03:46:08;;;;;;;4.50;4.10;;;;;;;6.75;100.00;100716.47;5059548;28;20501;-54
2022/11/30 03:48:39;;;;;;;31.20;3.70;;;;;;;6.69;100.00;100720.91;5057907;28;20507;-55
2022/11/30 03:51:07;;;;;;;3.23;2.80;;;;;;;6.61;100.00;100725.38;5061701;28;20478;-56
2022/11/30 03:53:33;;;;;;;7.20;2.87;;;;;;;6.69;100.00;100723.53;5064188;28;20459;-55
2022/11/30 03:56:02;;;;;;;11.57;6.43;;;;;;;6.78;100.00;100719.09;5051177;28;20467;-55
2022/11/30 03:58:29;;;;;;;3.97;3.77;;;;;;;6.73;100.00;100720.91;5064208;28;20459;-56
2022/11/30 04:01:13;;;;;;;5.13;4.13;;;;;;;6.69;100.00;100719.13;5060042;28;20822;-55
2022/11/30 04:03:40;;;;;;;5.10;2.97;;;;;;;6.70;100.00;100727.94;5064157;28;20454;-55
2022/11/30 04:06:08;;;;;;;4.97;4.33;;;;;;;6.69;100.00;100723.53;5062931;28;20489;-56
2022/11/30 04:08:36;;;;;;;19.07;5.23;;;;;;;6.61;100.00;100723.59;5063877;28;20454;-55
2022/11/30 04:11:03;;;;;;;4.00;3.70;;;;;;;6.65;100.00;100725.34;5063952;28;20460;-55
2022/11/30 04:13:31;;;;;;;6.17;3.63;;;;;;;6.55;100.00;100723.63;5057991;28;20453;-55
2022/11/30 04:15:58;;;;;;;14.17;5.33;;;;;;;6.67;100.00;100720.91;5057119;28;20536;-55
2022/11/30 04:18:27;;;;;;;15.87;5.43;;;;;;;6.70;100.00;100718.25;5062731;28;20543;-55
2022/11/30 04:20:55;;;;;;;5.63;5.10;;;;;;;6.81;100.00;100718.19;5063498;28;20511;-55
2022/11/30 04:23:23;;;;;;;7.90;4.33;;;;;;;6.77;100.00;100724.38;5058955;28;20457;-56
2022/11/30 04:25:50;;;;;;;2.60;2.40;;;;;;;6.88;100.00;100716.41;5056890;28;20556;-55
2022/11/30 04:28:18;;;;;;;5.80;4.33;;;;;;;6.76;100.00;100723.50;5061359;28;20454;-55
2022/11/30 04:30:45;;;;;;;3.67;2.90;;;;;;;6.68;100.00;100724.44;5063809;28;20823;-56
2022/11/30 04:33:13;;;;;;;3.80;2.50;;;;;;;6.62;100.00;100719.19;5049696;28;20454;-55
2022/11/30 04:35:44;;;;;;;4.40;4.00;;;;;;;6.65;100.00;100716.53;5056358;28;20474;-55
2022/11/30 04:38:11;;;;;;;8.60;2.73;;;;;;;6.68;100.00;100727.94;5059403;28;21360;-55
2022/11/30 04:40:39;;;;;;;5.10;4.60;;;;;;;6.65;100.00;100722.69;5063716;28;20466;-55
2022/11/30 04:43:06;;;;;;;15.03;6.47;;;;;;;6.72;100.00;100727.06;5060382;28;20454;-55
2022/11/30 04:45:33;;;;;;;2.53;2.40;;;;;;;6.67;100.00;100723.56;5056111;28;20473;-55
2022/11/30 04:48:02;;;;;;;5.87;4.60;;;;;;;6.73;100.00;100726.19;5058280;28;20457;-54
2022/11/30 04:50:29;;;;;;;7.37;5.30;;;;;;;6.71;100.00;100722.66;5063442;28;20454;-55
2022/11/30 04:52:55;;;;;;;3.77;2.80;;;;;;;6.95;100.00;100720.75;5061830;28;20827;-55
2022/11/30 04:55:22;;;;;;;6.93;4.63;;;;;;;7.06;100.00;100725.06;5051494;28;20481;-55
2022/11/30 04:57:49;;;;;;;4.87;3.90;;;;;;;7.02;100.00;100726.00;5061840;28;20446;-56
2022/11/30 05:00:17;;;;;;;5.83;3.50;;;;;;;7.01;100.00;100726.00;5054793;28;20805;-55
2022/11/30 05:02:43;;;;;;;16.87;7.57;;;;;;;7.01;100.00;100728.66;5066013;28;20504;-55
2022/11/30 05:05:17;;;;;;;5.23;3.60;;;;;;;6.94;100.00;100734.84;5043881;28;20496;-55
2022/11/30 05:07:48;;;;;;;4.43;3.87;;;;;;;6.93;100.00;100725.16;5055856;28;20495;-56
2022/11/30 05:10:15;;;;;;;4.50;3.87;;;;;;;6.90;100.00;100725.19;5062131;28;20454;-55
2022/11/30 05:12:41;;;;;;;5.20;4.17;;;;;;;6.95;100.00;100724.25;5061432;28;20454;-55
2022/11/30 05:15:08;;;;;;;3.60;2.97;;;;;;;6.92;100.00;100726.06;5057462;28;20469;-56
2022/11/30 05:17:35;;;;;;;4.80;2.50;;;;;;;6.88;100.00;100724.34;5055919;28;20451;-55
2022/11/30 05:20:01;;;;;;;5.77;5.27;;;;;;;6.89;100.00;100732.25;5061499;28;20454;-55
2022/11/30 05:22:28;;;;;;;7.73;3.27;;;;;;;6.93;100.00;100727.81;5062582;28;20450;-55
2022/11/30 05:24:54;;;;;;;9.07;5.77;;;;;;;6.90;100.00;100730.47;5057364;28;20820;-55
2022/11/30 05:27:20;;;;;;;11.87;4.90;;;;;;;6.86;100.00;100719.06;5055315;28;20497;-55
2022/11/30 05:29:48;;;;;;;2.93;2.73;;;;;;;7.26;100.00;100732.84;5061016;28;20454;-55
2022/11/30 05:32:14;;;;;;;4.23;3.93;;;;;;;7.12;100.00;100732.06;5041264;28;20507;-55
2022/11/30 05:34:41;;;;;;;7.20;5.83;;;;;;;7.08;100.00;100735.63;5057563;28;20485;-55
2022/11/30 05:37:17;;;;;;;3.70;3.40;;;;;;;7.05;100.00;100738.31;5055721;28;20445;-56
2022/11/30 05:39:43;;;;;;;3.30;3.00;;;;;;;7.01;100.00;100740.09;5057741;28;20960;-56
2022/11/30 05:42:10;;;;;;;11.47;2.53;;;;;;;6.98;100.00;100740.09;5061998;28;20455;-55
2022/11/30 05:44:36;;;;;;;5.33;3.40;;;;;;;7.05;100.00;100744.47;5059566;28;20470;-55
2022/11/30 05:47:03;;;;;;;9.73;5.60;;;;;;;6.97;100.00;100740.97;5055464;28;20490;-55
2022/11/30 05:49:29;;;;;;;4.83;4.37;;;;;;;6.97;100.00;100746.25;5058427;28;20459;-55
2022/11/30 05:51:55;;;;;;;5.03;4.60;;;;;;;6.96;100.00;100741.00;5062277;28;20500;-55
2022/11/30 05:54:22;;;;;;;8.33;4.60;;;;;;;6.94;100.00;100750.69;5059154;28;20606;-55
2022/11/30 05:56:48;;;;;;;4.47;4.17;;;;;;;6.91;100.00;100740.16;5054985;28;20441;-55
2022/11/30 05:59:20;;;;;;;4.47;4.13;;;;;;;6.96;100.00;100743.63;5057777;28;20451;-55
2022/11/30 06:01:46;;;;;;;5.70;5.40;;;;;;;6.93;100.00;100741.03;5058525;28;20455;-55
2022/11/30 06:04:13;;;;;;;5.43;3.00;;;;;;;6.96;100.00;100746.28;5060381;28;20527;-56
2022/11/30 06:06:40;;;;;;;13.30;4.53;;;;;;;7.00;100.00;100748.03;5055052;28;20489;-55
2022/11/30 06:09:06;;;;;;;3.40;3.20;;;;;;;7.12;100.00;100747.91;5057263;28;21001;-55
2022/11/30 06:11:33;;;;;;;5.40;3.90;;;;;;;7.17;100.00;100747.91;5062206;28;20874;-55
2022/11/30 06:13:59;;;;;;;3.87;2.50;;;;;;;7.13;100.00;100747.06;5058869;28;20457;-55
2022/11/30 06:16:25;;;;;;;4.83;4.47;;;;;;;7.09;100.00;100751.47;5055105;28;20452;-55
2022/11/30 06:18:52;;;;;;;5.50;4.27;;;;;;;7.03;100.00;100750.66;5057113;28;20457;-55
2022/11/30 06:21:18;;;;;;;4.70;3.20;;;;;;;7.01;100.00;100750.66;5061903;28;20466;-56
2022/11/30 06:23:50;;;;;;;6.00;2.57;;;;;;;7.04;100.00;100748.00;5059768;28;20824;-55
2022/11/30 06:26:16;;;;;;;6.27;3.90;;;;;;;7.10;100.00;100752.34;5055153;28;20513;-56
2022/11/30 06:28:43;;;;;;;6.30;5.73;;;;;;;7.14;100.00;100754.09;5056230;28;20504;-55
2022/11/30 06:31:14;;;;;;;3.50;3.30;;;;;;;7.12;100.00;100750.56;5061787;28;20451;-56
2022/11/30 06:33:40;;;;;;;8.37;7.33;;;;;;;7.12;100.00;100747.91;5062171;28;20499;-57
2022/11/30 06:36:07;;;;;;;16.23;4.57;;;;;;;7.08;100.00;100751.50;5041572;28;20485;-56
2022/11/30 06:38:34;;;;;;;4.73;4.33;;;;;;;7.10;100.00;100747.94;5055071;28;20456;-55
2022/11/30 06:41:05;;;;;;;7.80;5.00;;;;;;;7.10;100.00;100752.34;5054926;28;20954;-55
2022/11/30 06:43:34;;;;;;;13.57;6.40;;;;;;;7.15;100.00;100754.97;5054696;28;20833;-55
2022/11/30 06:46:02;;;;;;;19.40;6.50;;;;;;;7.14;100.00;100756.75;5060533;28;20479;-56
2022/11/30 06:48:29;;;;;;;6.60;3.67;;;;;;;7.12;100.00;100763.78;5061437;28;20533;-56
2022/11/30 06:50:57;;;;;;;11.03;5.43;;;;;;;7.13;100.00;100760.28;5056507;28;20454;-56
2022/11/30 06:53:24;;;;;;;5.80;5.40;;;;;;;7.06;100.00;100764.72;5054935;28;20477;-56
2022/11/30 06:55:51;;;;;;;7.63;3.30;;;;;;;7.00;100.00;100764.78;5049854;28;20861;-55
2022/11/30 06:58:17;;;;;;;14.47;6.20;;;;;;;7.04;100.00;100765.63;5058084;28;20449;-56
2022/11/30 07:00:44;;;;;;;53.10;4.60;;;;;;;7.09;100.00;100774.38;5057403;28;20458;-55
2022/11/30 07:03:11;;;;;;;4.70;3.30;;;;;;;7.20;100.00;100764.63;5061160;28;20484;-56
2022/11/30 07:05:42;;;;;;;10.43;5.47;;;;;;;7.19;100.00;100765.50;5057610;28;20888;-55
2022/11/30 07:08:10;;;;;;;22.67;4.23;;;;;;;7.23;100.00;100769.00;5056366;28;20489;-55
2022/11/30 07:10:45;;;;;;;12.23;5.10;;;;;;;7.28;100.00;100768.09;5061309;28;20947;-55
2022/11/30 07:13:14;;;;;;;7.00;3.83;;;;;;;7.36;100.00;100773.31;5064968;28;20451;-55
2022/11/30 07:15:41;;;;;;;6.90;5.27;;;;;;;7.29;100.00;100775.13;5063503;28;20469;-55
2022/11/30 07:18:08;;;;;;;6.27;5.53;;;;;;;7.37;100.00;100768.00;5057819;28;20449;-55
2022/11/30 07:20:36;;;;;;;14.23;5.10;;;;;;;7.31;100.00;100770.72;5059267;28;20956;-55
2022/11/30 07:26:05;;;;;;;10.57;4.87;;;;;;;7.36;100.00;100774.19;5064664;28;20474;-55
2022/11/30 07:28:37;;;;;;;5.03;4.30;;;;;;;7.39;100.00;100775.94;5062793;28;20528;-56
2022/11/30 07:31:20;;;;;;;5.07;4.67;;;;;;;7.29;100.00;100777.78;5052882;28;20456;-55
2022/11/30 07:33:48;;;;;;;4.67;4.37;;;;;;;7.32;100.00;100780.41;5046083;28;20454;-55
2022/11/30 07:36:16;;;;;;;6.30;4.53;;;;;;;7.33;100.00;100781.28;5063634;28;20447;-55
2022/11/30 07:38:43;;;;;;;4.00;3.67;;;;;;;7.36;100.00;100782.13;5064818;28;20457;-56
2022/11/30 07:41:10;;;;;;;8.20;4.73;;;;;;;7.36;100.00;100781.25;5059577;28;20951;-56
2022/11/30 07:43:37;;;;;;;8.93;4.17;;;;;;;7.39;100.00;100781.22;5057724;28;20516;-56
2022/11/30 07:46:03;;;;;;;5.40;4.83;;;;;;;7.51;100.00;100780.25;5062956;28;20471;-55
2022/11/30 07:48:30;;;;;;;14.57;5.60;;;;;;;7.59;100.00;100783.72;5063048;28;20500;-55
2022/11/30 07:51:05;;;;;;;6.53;4.33;;;;;;;7.53;100.00;100789.91;5060131;28;20457;-56
2022/11/30 07:53:32;;;;;;;10.53;5.87;;;;;;;7.53;100.00;100795.19;5057731;28;20514;-55
2022/11/30 07:56:03;;;;;;;23.73;2.70;;;;;;;7.51;100.00;100794.34;5050820;28;20468;-55
2022/11/30 07:58:30;;;;;;;14.17;6.37;;;;;;;7.58;100.00;100792.53;5062018;28;20451;-55
2022/11/30 08:01:05;;;;;;;6.53;4.53;;;;;;;7.57;100.00;100790.78;5060387;28;20456;-55
2022/11/30 08:03:32;;;;;;;8.20;6.03;;;;;;;7.67;100.00;100792.44;5063857;28;20474;-56
2022/11/30 08:06:14;;;;;;;4.90;4.50;;;;;;;7.84;100.00;100782.59;5063476;28;20476;-55
2022/11/30 08:08:43;;;;;;;8.63;7.10;;;;;;;7.90;100.00;100786.94;5062895;28;20494;-56
2022/11/30 08:11:13;;;;;;;13.20;4.60;;;;;;;7.95;100.00;100785.16;5063632;28;20973;-55
2022/11/30 08:13:40;;;;;;;8.13;4.27;;;;;;;7.94;100.00;100786.91;5059399;28;20450;-55
2022/11/30 08:16:09;;;;;;;18.70;4.20;;;;;;;7.97;100.00;100788.66;5056587;28;20936;-56
2022/11/30 08:18:36;;;;;;;14.40;3.77;;;;;;;8.06;100.00;100788.53;5061470;28;20501;-55
2022/11/30 08:21:05;;;;;;;18.37;5.10;;;;;;;8.10;100.00;100795.59;5063742;28;20450;-55
2022/11/30 08:23:34;;;;;;;6.30;5.70;;;;;;;8.03;100.00;100793.88;5060584;28;20482;-55
2022/11/30 08:26:05;;;;;;;8.50;6.77;;;;;;;8.12;100.00;100790.28;5056618;28;20483;-56
2022/11/30 08:28:36;;;;;;;11.90;8.90;;;;;;;8.21;100.00;100803.41;5059353;28;20499;-55
2022/11/30 08:31:06;;;;;;;12.77;8.70;;;;;;;8.17;100.00;100799.03;5063836;28;20892;-55
2022/11/30 08:33:33;;;;;;;8.30;6.77;;;;;;;8.27;100.00;100800.69;5062182;28;20484;-56
2022/11/30 08:36:14;;;;;;;12.87;6.67;;;;;;;8.35;100.00;100798.84;5056858;28;20481;-55
2022/11/30 08:38:42;;;;;;;8.97;5.37;;;;;;;8.31;100.00;100795.34;5057075;28;20443;-55
2022/11/30 08:41:11;;;;;;;25.27;5.23;;;;;;;8.27;100.00;100793.63;5062062;28;20455;-55
2022/11/30 08:43:38;;;;;;;10.00;5.63;;;;;;;8.40;100.00;100790.88;5063352;28;20446;-55
2022/11/30 08:46:08;;;;;;;14.27;6.87;;;;;;;8.44;100.00;100797.88;5058226;28;20504;-56
2022/11/30 08:48:54;;;;;;;8.37;6.13;;;;;;;8.40;100.00;100797.06;5056069;28;20909;-55
2022/11/30 08:51:40;;;;;;;6.80;6.20;;;;;;;8.41;100.00;100801.44;5055966;28;21048;-55
2022/11/30 08:54:27;;;;;;;5.50;5.00;;;;;;;8.53;100.00;100801.31;5059829;28;20828;-55
2022/11/30 08:56:53;;;;;;;3.37;2.50;;;;;;;8.52;100.00;100802.22;5054013;28;20879;-55
2022/11/30 08:59:19;;;;;;;3.17;3.00;;;;;;;8.57;100.00;100805.66;5058353;28;21074;-55
2022/11/30 09:01:46;;;;;;;11.27;5.83;;;;;;;8.56;100.00;100809.22;5064112;28;20461;-55
2022/11/30 09:04:12;;;;;;;6.60;5.20;;;;;;;8.67;100.00;100805.56;5058124;28;20470;-55
2022/11/30 09:06:39;;;;;;;13.53;6.00;;;;;;;8.74;100.00;100807.22;5063240;28;20962;-55
2022/11/30 09:09:05;;;;;;;10.67;6.80;;;;;;;8.80;100.00;100808.03;5061011;28;20449;-55
2022/11/30 09:11:32;;;;;;;10.43;5.37;;;;;;;8.88;100.00;100808.81;5055842;28;20511;-55
2022/11/30 09:14:02;;;;;;;3.57;3.33;;;;;;;9.10;100.00;100814.69;5057818;28;20944;-55
2022/11/30 09:16:29;;;;;;;6.80;5.47;;;;;;;9.24;100.00;100813.63;5062434;28;20459;-55
2022/11/30 09:18:55;;;;;;;10.57;5.43;;;;;;;9.23;100.00;100814.53;5061885;28;20450;-57
2022/11/30 09:21:24;;;;;;;7.83;4.60;;;;;;;9.20;100.00;100816.31;5055890;28;20457;-55
2022/11/30 09:23:52;;;;;;;7.13;3.70;;;;;;;9.40;100.00;100820.44;5056189;28;20474;-55
2022/11/30 09:26:24;;;;;;;9.83;5.37;;;;;;;9.59;100.00;100823.69;5044327;28;20454;-56
2022/11/30 09:28:52;;;;;;;5.43;4.13;;;;;;;9.38;100.00;100814.28;5054282;28;20494;-56
2022/11/30 09:31:21;;;;;;;7.63;3.60;;;;;;;9.63;100.00;100814.78;5061251;28;20534;-55
2022/11/30 09:33:48;;;;;;;9.90;4.13;;;;;;;9.75;100.00;100812.81;5062088;28;21024;-56
2022/11/30 09:36:17;;;;;;;9.00;3.03;;;;;;;9.94;100.00;100813.34;5057799;28;20450;-55
2022/11/30 09:38:43;;;;;;;4.97;4.53;;;;;;;9.91;100.00;100816.06;5055889;28;20450;-55
2022/11/30 09:41:28;;;;;;;5.60;4.80;;;;;;;10.02;100.00;100816.78;5060111;28;20452;-55
2022/11/30 09:44:02;;;;;;;12.70;3.37;;;;;;;9.88;100.00;100813.47;5062557;28;20454;-55
2022/11/30 09:46:50;;;;;;;3.63;2.70;;;;;;;9.97;100.00;100826.56;5062199;28;20449;-55
2022/11/30 09:49:26;;;;;;;3.70;3.50;;;;;;;10.05;100.00;100822.03;5059729;28;20500;-56
2022/11/30 09:51:57;;;;;;;4.00;3.60;;;;;;;10.10;100.00;100819.28;5062340;28;20458;-55
2022/11/30 09:54:38;;;;;;;5.20;3.23;;;;;;;9.91;100.00;100817.84;5049023;28;20520;-56
2022/11/30 09:57:35;;;;;;;17.87;2.70;;;;;;;9.99;100.00;100821.22;5054494;28;20442;-55
2022/11/30 10:00:13;;;;;;;5.40;4.70;;;;;;;10.00;100.00;100815.91;5055440;28;20450;-55
2022/11/30 10:02:40;;;;;;;3.43;2.83;;;;;;;10.06;100.00;100821.13;5064957;28;20445;-56
2022/11/30 10:05:16;;;;;;;3.43;2.47;;;;;;;9.72;100.00;100818.16;5055505;28;20502;-55
2022/11/30 10:08:03;;;;;;;4.80;4.60;;;;;;;9.80;100.00;100818.91;5055432;28;20593;-55
2022/11/30 10:10:55;;;;;;;7.63;3.60;;;;;;;9.97;100.00;100820.38;5058492;28;20504;-55
2022/11/30 10:13:52;;;;;;;3.47;3.17;;;;;;;9.71;100.00;100823.47;5043286;28;20483;-55
2022/11/30 10:16:44;;;;;;;4.60;4.30;;;;;;;9.83;100.00;100806.47;5055063;28;21057;-55
2022/11/30 10:19:22;;;;;;;3.57;3.37;;;;;;;9.82;100.00;100816.22;5055040;28;20451;-56
2022/11/30 10:22:02;;;;;;;6.83;5.20;;;;;;;9.88;100.00;100812.59;5058554;28;20451;-55
2022/11/30 10:24:40;;;;;;;5.87;4.63;;;;;;;9.73;100.00;100806.66;5062052;28;20467;-55
2022/11/30 10:27:17;;;;;;;6.30;4.13;;;;;;;10.05;100.00;100813.19;5061763;28;20449;-54
2022/11/30 10:29:43;;;;;;;4.83;3.33;;;;;;;9.96;100.00;100806.25;5057288;28;20445;-53
2022/11/30 10:32:19;;;;;;;6.27;4.27;;;;;;;10.02;100.00;100810.59;5055244;28;20516;-53
2022/11/30 10:34:56;;;;;;;6.30;4.37;;;;;;;9.94;100.00;100807.19;5057781;28;20478;-53
2022/11/30 10:37:34;;;;;;;6.80;4.07;;;;;;;10.04;100.00;100806.13;5061905;28;20446;-55
2022/11/30 10:40:22;;;;;;;3.50;3.13;;;;;;;10.01;100.00;100804.41;5061528;28;20479;-54
2022/11/30 10:43:02;;;;;;;9.60;6.70;;;;;;;10.15;100.00;100811.25;5061199;28;20980;-53
2022/11/30 10:45:30;;;;;;;8.43;4.10;;;;;;;9.88;100.00;100809.94;5058868;28;20478;-53
2022/11/30 10:48:16;;;;;;;7.50;4.57;;;;;;;10.10;100.00;100804.22;5059844;28;20875;-54
2022/11/30 10:50:43;;;;;;;11.40;5.90;;;;;;;10.04;100.00;100798.16;5048711;28;20446;-53
2022/11/30 10:53:10;;;;;;;5.97;5.37;;;;;;;9.92;100.00;100804.56;5058786;28;20501;-53
2022/11/30 10:55:58;;;;;;;7.83;6.10;;;;;;;9.78;100.00;100804.78;5062301;28;21019;-53
2022/11/30 10:58:55;;;;;;;5.00;4.60;;;;;;;10.06;100.00;100812.28;5063854;28;20446;-54
2022/11/30 11:01:31;;;;;;;5.47;3.70;;;;;;;9.73;100.00;100805.75;5063177;28;20455;-53
2022/11/30 11:04:17;;;;;;;6.33;4.70;;;;;;;9.83;100.00;100809.13;5062622;28;20450;-53
2022/11/30 11:06:54;;;;;;;4.20;3.80;;;;;;;9.79;100.00;100797.69;5065216;28;20459;-53
2022/11/30 11:09:29;;;;;;;9.20;4.53;;;;;;;9.82;100.00;100794.09;5065073;28;20855;-54
2022/11/30 11:11:59;;;;;;;22.00;7.10;;;;;;;9.62;100.00;100789.16;5059999;28;20457;-54
2022/11/30 11:14:27;;;;;;;7.40;3.67;;;;;;;9.86;100.00;100793.16;5058093;28;20818;-53
2022/11/30 11:17:03;;;;;;;12.33;7.50;;;;;;;9.78;100.00;100790.63;5062907;28;20516;-53
2022/11/30 11:19:37;;;;;;;7.73;5.67;;;;;;;9.82;100.00;100786.16;5064715;28;20418;-54
2022/11/30 11:22:05;;;;;;;13.90;8.00;;;;;;;10.01;100.00;100790.25;5063561;28;20449;-53
2022/11/30 11:24:33;;;;;;;6.20;5.67;;;;;;;9.73;100.00;100793.38;5054733;28;20991;-54
2022/11/30 11:26:59;;;;;;;10.77;6.70;;;;;;;9.83;100.00;100782.59;5063675;28;20441;-54
2022/11/30 11:29:34;;;;;;;18.53;6.40;;;;;;;9.74;100.00;100794.25;5058137;28;21048;-54
2022/11/30 11:32:21;;;;;;;5.33;4.93;;;;;;;10.02;100.00;100792.88;5067872;28;20465;-54
2022/11/30 11:34:47;;;;;;;24.20;7.23;;;;;;;9.89;100.00;100794.00;5061015;28;20495;-54
2022/11/30 11:37:25;;;;;;;6.97;5.23;;;;;;;9.79;100.00;100793.25;5057910;28;20453;-54
2022/11/30 11:40:04;;;;;;;6.57;6.07;;;;;;;9.76;100.00;100790.66;5059207;28;20462;-54